WetterOnline ( http://www.wetteronline.de )

Wetter aktuell Ingolstadt

Aktuelles Wetter: Weißenburg (424m)

6-stündlich | Neueste Meldungen
Ortszeit Temperatur Wetter
Do, 26.04. 20:00 11.2° C wolkenlos
Do, 26.04. 14:00 12.9° C fast wolkenlos
Do, 26.04. 8:00 9.7° C bedeckt
Do, 26.04. 2:00 12.1° C bedeckt
Mi, 25.04. 20:00 15.8° C bewölkt
Mi, 25.04. 14:00 21.0° C leicht bewölkt
Mi, 25.04. 8:00 11.8° C leicht bewölkt
Mi, 25.04. 2:00 9.4° C wolkig
Ortszeit Temperatur Wetter
Fr, 27.04. 0:30 4.2° C bewölkt
Fr, 27.04. 0:20 4.2° C bewölkt
Fr, 27.04. 0:10 3.9° C bewölkt
Fr, 27.04. 0:00 4.3° C bewölkt
Do, 26.04. 23:50 4.3° C bewölkt
Do, 26.04. 23:40 4.6° C bewölkt
Do, 26.04. 23:30 5.1° C wolkig
Do, 26.04. 23:00 6.4° C leicht bewölkt
Do, 26.04. 22:30 6.9° C wolkenlos
Do, 26.04. 22:00 8.6° C wolkenlos
Do, 26.04. 21:30 9.3° C fast wolkenlos
Ortszeit Relative Feuchte Sichtweite
Do, 26.04. 20:00 46% 50 km
Do, 26.04. 14:00 48% 35 km
Do, 26.04. 8:00 80% 40 km
Do, 26.04. 2:00 70% 65 km
Mi, 25.04. 20:00 61% 40 km
Mi, 25.04. 14:00 46% 15 km
Mi, 25.04. 8:00 82% 16 km
Mi, 25.04. 2:00 91% 21 km
Ortszeit Relative Feuchte Sichtweite
Fr, 27.04. 0:30 80% 70 km
Fr, 27.04. 0:20 80% -
Fr, 27.04. 0:10 83% -
Fr, 27.04. 0:00 81% 65 km
Do, 26.04. 23:50 81% -
Do, 26.04. 23:40 75% -
Do, 26.04. 23:30 72% 70 km
Do, 26.04. 23:00 66% 70 km
Do, 26.04. 22:30 65% 70 km
Do, 26.04. 22:00 56% 70 km
Do, 26.04. 21:30 54% 70 km
Ortszeit Niederschlagsmenge Niederschlagsart
Do, 26.04. 20:00 0.0 l/m2 in 12 Std. -
Do, 26.04. 14:00 0.0 l/m2 in 6 Std. -
Do, 26.04. 8:00 0.1 l/m2 in 12 Std. Regen
Do, 26.04. 2:00 0.0 l/m2 in 6 Std. -
Mi, 25.04. 20:00 0.1 l/m2 in 12 Std. Regen
Mi, 25.04. 14:00 0.0 l/m2 in 6 Std. -
Mi, 25.04. 8:00 0.0 l/m2 in 12 Std. -
Mi, 25.04. 2:00 0.0 l/m2 in 6 Std. -
Ortszeit Niederschlagsmenge Niederschlagsart
Fr, 27.04. 0:30 0.0 l/m2 in 1 Std. -
Fr, 27.04. 0:20 keine Meldung -
Fr, 27.04. 0:10 keine Meldung -
Fr, 27.04. 0:00 0.0 l/m2 in 1 Std. -
Do, 26.04. 23:50 keine Meldung -
Do, 26.04. 23:40 keine Meldung -
Do, 26.04. 23:30 0.0 l/m2 in 1 Std. -
Do, 26.04. 23:00 0.0 l/m2 in 1 Std. -
Do, 26.04. 22:30 0.0 l/m2 in 1 Std. -
Do, 26.04. 22:00 0.0 l/m2 in 1 Std. -
Do, 26.04. 21:30 0.0 l/m2 in 1 Std. -
Ortszeit Stärke Spitze Richtung
km/h Bft. km/h Grad Sektor
Do, 26.04. 20:00 17 3 44 290° W
Do, 26.04. 14:00 35 5 50 290° W
Do, 26.04. 8:00 11 2 36 260° W
Do, 26.04. 2:00 14 3 29 280° W
Mi, 25.04. 20:00 13 3 52 310° NW
Mi, 25.04. 14:00 35 5 63 260° W
Mi, 25.04. 8:00 13 3 20 170° S
Mi, 25.04. 2:00 9 2 15 210° SW
Ortszeit Stärke Spitze Richtung
km/h Bft. km/h Grad Sektor
Fr, 27.04. 0:30 7 2 11 200° S
Fr, 27.04. 0:20 7 2 - 200° S
Fr, 27.04. 0:10 7 2 - 190° S
Fr, 27.04. 0:00 7 2 11 200° S
Do, 26.04. 23:50 7 2 - 200° S
Do, 26.04. 23:40 7 2 - 200° S
Do, 26.04. 23:30 7 2 11 180° S
Do, 26.04. 23:00 7 2 11 180° S
Do, 26.04. 22:30 6 1 7 190° S
Do, 26.04. 22:00 6 1 13 300° NW
Do, 26.04. 21:30 9 2 13 290° W
Ortszeit Untergrenze Bedeckung Gattung
total tief tief mittel hoch
Do, 26.04. 20:00 - 0/8 0/8 - - -
Do, 26.04. 14:00 1500 m 1/8 1/8 - - -
Do, 26.04. 8:00 840 m 8/8 8/8 - - -
Do, 26.04. 2:00 1200 m 8/8 8/8 - - -
Mi, 25.04. 20:00 3000 m 7/8 7/8 - - -
Mi, 25.04. 14:00 2100 m 3/8 2/8 - - -
Mi, 25.04. 8:00 1440 m 3/8 1/8 - - -
Mi, 25.04. 2:00 8100 m 8/8 0/8 - - -
Ortszeit Bedeckungsgrad in Achtel und Wolkenuntergrenze
Fr, 27.04. 0:30 7(2100m) 7(9000m) 8(9000m)
Fr, 27.04. 0:20 7(2100m) 7(9000m) 8(9000m)
Fr, 27.04. 0:10 7(2100m) 7(9000m) 8(9000m)
Fr, 27.04. 0:00 7(2100m) 8(9000m) 8(9000m)
Do, 26.04. 23:50 7(2100m) 8(9000m) 8(9000m)
Do, 26.04. 23:40 7(2100m) 8(9000m) 8(9000m)
Do, 26.04. 23:30 3(2100m) 8(9000m)
Do, 26.04. 23:00 1(2400m) 4(9000m) 5(9000m)
Do, 26.04. 22:30 1(2100m)
Do, 26.04. 22:00 keine Wolken
Do, 26.04. 21:30 2(8400m)
Ortszeit Luftdruck NN (hPa) Tendenz (hPa in 3 Std.)
Do, 26.04. 20:00 1019 + 0,3
Do, 26.04. 14:00 1019 + 0,3
Do, 26.04. 8:00 1018 + 1,2
Do, 26.04. 2:00 1016 + 1,4
Mi, 25.04. 20:00 1012 0,0
Mi, 25.04. 14:00 1011 - 0,6
Mi, 25.04. 8:00 1014 + 0,1
Mi, 25.04. 2:00 1015 - 1,2
Ortszeit Luftdruck NN (hPa) Tendenz (hPa in 3 Std.)
Fr, 27.04. 0:30 1021 + 0,1
Fr, 27.04. 0:20 1021 keine Meldung
Fr, 27.04. 0:10 1021 keine Meldung
Fr, 27.04. 0:00 1021 + 0,6
Do, 26.04. 23:50 1021 keine Meldung
Do, 26.04. 23:40 1021 keine Meldung
Do, 26.04. 23:30 1021 + 0,9
Do, 26.04. 23:00 1021 + 1,1
Do, 26.04. 22:30 1021 + 1,3
Do, 26.04. 22:00 1020 + 1,2
Do, 26.04. 21:30 1020 + 1,2
Ortszeit Schneehöhe (cm)
Do, 26.04. 20:00 0
Do, 26.04. 14:00 0
Do, 26.04. 8:00 0
Do, 26.04. 2:00 0
Mi, 25.04. 20:00 0
Mi, 25.04. 14:00 0
Mi, 25.04. 8:00 0
Mi, 25.04. 2:00 0
Ortszeit Schneehöhe (cm)
Fr, 27.04. 0:30 0
Fr, 27.04. 0:20 0
Fr, 27.04. 0:10 0
Fr, 27.04. 0:00 0
Do, 26.04. 23:50 0
Do, 26.04. 23:40 0
Do, 26.04. 23:30 0
Do, 26.04. 23:00 0
Do, 26.04. 22:30 0
Do, 26.04. 22:00 0
Do, 26.04. 21:30 0
Link zu dieser Seite / Seite empfehlen

Das Wetter in ...